ETIH

Details ICAO ETIH
Name HOHENFELS AAF
Region Germany - Military
Timezone Europe/Berlin (UTC+2.0)
Plans Departing 1
Arriving 2
Stats Elevation 1,455 ft / 443 m (AMSL)
Location 49.218056° 11.836111°
Runways 1
Magnetic Variation 3.259° E
Sunrise 2018-05-23 03:21:40 UTC / 2018-05-23 05:21:40 Local
Sunset 2018-05-23 19:00:00 UTC / 2018-05-23 21:00:00 Local
Advertisement - Login to hide

Runways

ID Width Length Bearing (true) Bearing (mag) Surface Threshold Offset Overrun Length
09 72 ft / 22 m 2,119 ft / 646 m 90.00° 86.74° Asphalt 0 ft / 0 m 0 ft / 0 m
27 72 ft / 22 m 2,119 ft / 646 m 270.00° 266.74° Asphalt 0 ft / 0 m 0 ft / 0 m

Map

Weather


0- 5 10 15 20 25 30 35+ Temperature / ° C

Clouds and Precipitation
Forecast for 2018-05-23 18:00 UTC. Updated 5 hours ago

Ground ~20,000 ft ~40,000 ft Winds

METAR

ETIH 232156Z AUTO 00000KT 9999 CLR 17/15 A3009 RMK AO2 SLP180 T01670152 $

TAF

Not found

Frequencies

Tower 120.65 MHz MUNCHEN INFO
Tower 122.10 MHz TWR
Warning: Do not use this data for real-world aviation or navigation. No guarantee of current accuracy is given.